sensor_id;sensor_type;location;lat;lon;timestamp;P1;durP1;ratioP1;P2;durP2;ratioP2
57401;SDS011;43226;51.110;6.998;2022-12-24T00:00:22;21.50;;;4.07;;
57401;SDS011;43226;51.110;6.998;2022-12-24T00:02:48;25.50;;;3.93;;
57401;SDS011;43226;51.110;6.998;2022-12-24T00:05:14;24.67;;;3.97;;
57401;SDS011;43226;51.110;6.998;2022-12-24T00:07:39;15.10;;;4.07;;
57401;SDS011;43226;51.110;6.998;2022-12-24T00:10:04;10.63;;;3.33;;
57401;SDS011;43226;51.110;6.998;2022-12-24T00:12:30;16.77;;;4.40;;
57401;SDS011;43226;51.110;6.998;2022-12-24T00:14:55;20.50;;;3.53;;
57401;SDS011;43226;51.110;6.998;2022-12-24T00:17:20;24.60;;;3.93;;
57401;SDS011;43226;51.110;6.998;2022-12-24T00:19:45;26.17;;;4.00;;
57401;SDS011;43226;51.110;6.998;2022-12-24T00:22:10;19.20;;;3.70;;
57401;SDS011;43226;51.110;6.998;2022-12-24T00:24:36;26.63;;;4.80;;
57401;SDS011;43226;51.110;6.998;2022-12-24T00:27:01;20.60;;;3.87;;
57401;SDS011;43226;51.110;6.998;2022-12-24T00:29:27;17.77;;;3.87;;
57401;SDS011;43226;51.110;6.998;2022-12-24T00:31:52;25.60;;;4.03;;
57401;SDS011;43226;51.110;6.998;2022-12-24T00:34:17;25.03;;;4.00;;
57401;SDS011;43226;51.110;6.998;2022-12-24T00:36:43;15.30;;;3.00;;
57401;SDS011;43226;51.110;6.998;2022-12-24T00:39:08;15.23;;;3.60;;
57401;SDS011;43226;51.110;6.998;2022-12-24T00:41:33;13.13;;;3.27;;
57401;SDS011;43226;51.110;6.998;2022-12-24T00:43:59;21.97;;;3.90;;
57401;SDS011;43226;51.110;6.998;2022-12-24T00:46:25;23.60;;;3.70;;
57401;SDS011;43226;51.110;6.998;2022-12-24T00:48:51;25.40;;;3.87;;
57401;SDS011;43226;51.110;6.998;2022-12-24T00:51:16;20.13;;;3.47;;
57401;SDS011;43226;51.110;6.998;2022-12-24T00:53:42;23.70;;;3.03;;
57401;SDS011;43226;51.110;6.998;2022-12-24T00:56:07;25.40;;;4.10;;
57401;SDS011;43226;51.110;6.998;2022-12-24T00:58:33;26.97;;;3.90;;
57401;SDS011;43226;51.110;6.998;2022-12-24T01:00:58;34.60;;;4.73;;
57401;SDS011;43226;51.110;6.998;2022-12-24T01:03:23;19.73;;;4.27;;
57401;SDS011;43226;51.110;6.998;2022-12-24T01:05:59;36.97;;;4.17;;
57401;SDS011;43226;51.110;6.998;2022-12-24T01:08:24;18.37;;;4.60;;
57401;SDS011;43226;51.110;6.998;2022-12-24T01:10:49;25.53;;;4.30;;
57401;SDS011;43226;51.110;6.998;2022-12-24T01:13:14;24.93;;;4.40;;
57401;SDS011;43226;51.110;6.998;2022-12-24T01:15:39;23.77;;;6.83;;
57401;SDS011;43226;51.110;6.998;2022-12-24T01:18:05;14.73;;;2.60;;
57401;SDS011;43226;51.110;6.998;2022-12-24T01:20:30;23.77;;;3.70;;
57401;SDS011;43226;51.110;6.998;2022-12-24T01:22:57;18.00;;;3.03;;
57401;SDS011;43226;51.110;6.998;2022-12-24T01:25:22;22.50;;;4.70;;
57401;SDS011;43226;51.110;6.998;2022-12-24T01:27:47;19.40;;;3.00;;
57401;SDS011;43226;51.110;6.998;2022-12-24T01:30:12;14.13;;;4.17;;
57401;SDS011;43226;51.110;6.998;2022-12-24T01:32:38;25.10;;;5.20;;
57401;SDS011;43226;51.110;6.998;2022-12-24T01:35:03;15.40;;;4.90;;
57401;SDS011;43226;51.110;6.998;2022-12-24T01:37:29;32.17;;;5.10;;
57401;SDS011;43226;51.110;6.998;2022-12-24T01:39:54;22.80;;;4.20;;
57401;SDS011;43226;51.110;6.998;2022-12-24T01:42:40;17.73;;;3.60;;
57401;SDS011;43226;51.110;6.998;2022-12-24T01:46:08;31.93;;;5.60;;
57401;SDS011;43226;51.110;6.998;2022-12-24T01:50:49;22.70;;;4.37;;
57401;SDS011;43226;51.110;6.998;2022-12-24T01:53:16;22.90;;;3.80;;
57401;SDS011;43226;51.110;6.998;2022-12-24T01:55:42;13.90;;;3.93;;
57401;SDS011;43226;51.110;6.998;2022-12-24T01:58:08;21.03;;;3.57;;
57401;SDS011;43226;51.110;6.998;2022-12-24T02:00:34;24.53;;;4.37;;
57401;SDS011;43226;51.110;6.998;2022-12-24T02:03:00;18.77;;;3.23;;
57401;SDS011;43226;51.110;6.998;2022-12-24T02:05:30;17.53;;;4.37;;
57401;SDS011;43226;51.110;6.998;2022-12-24T02:07:56;16.90;;;3.73;;
57401;SDS011;43226;51.110;6.998;2022-12-24T02:10:22;27.47;;;4.40;;
57401;SDS011;43226;51.110;6.998;2022-12-24T02:12:47;23.27;;;4.00;;
57401;SDS011;43226;51.110;6.998;2022-12-24T02:15:13;19.53;;;4.20;;
57401;SDS011;43226;51.110;6.998;2022-12-24T02:17:42;32.90;;;5.40;;
57401;SDS011;43226;51.110;6.998;2022-12-24T02:30:50;14.00;;;3.30;;
57401;SDS011;43226;51.110;6.998;2022-12-24T02:33:19;18.13;;;4.00;;
57401;SDS011;43226;51.110;6.998;2022-12-24T02:35:50;17.27;;;4.03;;
57401;SDS011;43226;51.110;6.998;2022-12-24T02:40:45;16.00;;;3.22;;
57401;SDS011;43226;51.110;6.998;2022-12-24T02:43:14;25.30;;;4.43;;
57401;SDS011;43226;51.110;6.998;2022-12-24T02:45:41;29.33;;;3.90;;
57401;SDS011;43226;51.110;6.998;2022-12-24T02:48:08;18.40;;;3.13;;
57401;SDS011;43226;51.110;6.998;2022-12-24T02:50:34;24.10;;;4.00;;
57401;SDS011;43226;51.110;6.998;2022-12-24T02:52:59;27.80;;;5.10;;
57401;SDS011;43226;51.110;6.998;2022-12-24T02:55:38;24.97;;;4.67;;
57401;SDS011;43226;51.110;6.998;2022-12-24T03:04:30;26.83;;;3.93;;
57401;SDS011;43226;51.110;6.998;2022-12-24T03:09:04;19.60;;;3.07;;
57401;SDS011;43226;51.110;6.998;2022-12-24T03:11:31;13.40;;;3.70;;
57401;SDS011;43226;51.110;6.998;2022-12-24T03:13:57;23.33;;;4.40;;
57401;SDS011;43226;51.110;6.998;2022-12-24T03:16:23;27.57;;;3.83;;
57401;SDS011;43226;51.110;6.998;2022-12-24T03:18:49;25.00;;;4.00;;
57401;SDS011;43226;51.110;6.998;2022-12-24T03:21:19;17.60;;;3.30;;
57401;SDS011;43226;51.110;6.998;2022-12-24T03:23:45;18.60;;;3.90;;
57401;SDS011;43226;51.110;6.998;2022-12-24T03:26:11;17.00;;;4.73;;
57401;SDS011;43226;51.110;6.998;2022-12-24T03:28:38;17.10;;;4.10;;
57401;SDS011;43226;51.110;6.998;2022-12-24T03:31:05;23.10;;;4.27;;
57401;SDS011;43226;51.110;6.998;2022-12-24T03:33:30;18.60;;;3.50;;
57401;SDS011;43226;51.110;6.998;2022-12-24T03:35:55;19.77;;;4.20;;
57401;SDS011;43226;51.110;6.998;2022-12-24T03:38:21;18.83;;;3.77;;
57401;SDS011;43226;51.110;6.998;2022-12-24T03:40:46;19.40;;;3.80;;
57401;SDS011;43226;51.110;6.998;2022-12-24T03:43:11;18.40;;;3.40;;
57401;SDS011;43226;51.110;6.998;2022-12-24T03:45:36;21.83;;;3.40;;
57401;SDS011;43226;51.110;6.998;2022-12-24T03:48:01;19.43;;;3.40;;
57401;SDS011;43226;51.110;6.998;2022-12-24T03:50:27;14.53;;;3.10;;
57401;SDS011;43226;51.110;6.998;2022-12-24T03:52:53;25.30;;;3.40;;
57401;SDS011;43226;51.110;6.998;2022-12-24T03:55:18;13.93;;;3.20;;
57401;SDS011;43226;51.110;6.998;2022-12-24T03:57:43;15.43;;;3.47;;
57401;SDS011;43226;51.110;6.998;2022-12-24T04:00:08;7.17;;;2.50;;
57401;SDS011;43226;51.110;6.998;2022-12-24T04:02:34;12.13;;;3.43;;
57401;SDS011;43226;51.110;6.998;2022-12-24T04:04:59;12.50;;;3.27;;
57401;SDS011;43226;51.110;6.998;2022-12-24T04:07:24;15.13;;;2.97;;
57401;SDS011;43226;51.110;6.998;2022-12-24T04:09:49;14.60;;;2.10;;
57401;SDS011;43226;51.110;6.998;2022-12-24T04:12:14;12.07;;;2.93;;
57401;SDS011;43226;51.110;6.998;2022-12-24T04:14:39;10.27;;;2.87;;
57401;SDS011;43226;51.110;6.998;2022-12-24T04:17:05;11.90;;;2.30;;
57401;SDS011;43226;51.110;6.998;2022-12-24T04:19:30;10.63;;;2.23;;
57401;SDS011;43226;51.110;6.998;2022-12-24T04:21:55;10.43;;;1.93;;
57401;SDS011;43226;51.110;6.998;2022-12-24T04:24:21;7.30;;;2.07;;
57401;SDS011;43226;51.110;6.998;2022-12-24T04:26:46;9.00;;;2.50;;
57401;SDS011;43226;51.110;6.998;2022-12-24T04:29:11;10.60;;;2.40;;
57401;SDS011;43226;51.110;6.998;2022-12-24T04:31:37;8.03;;;2.43;;
57401;SDS011;43226;51.110;6.998;2022-12-24T04:34:02;10.00;;;2.00;;
57401;SDS011;43226;51.110;6.998;2022-12-24T04:36:27;7.67;;;2.90;;
57401;SDS011;43226;51.110;6.998;2022-12-24T04:38:52;7.77;;;2.23;;
57401;SDS011;43226;51.110;6.998;2022-12-24T04:41:21;7.30;;;1.93;;
57401;SDS011;43226;51.110;6.998;2022-12-24T04:43:46;10.87;;;1.97;;
57401;SDS011;43226;51.110;6.998;2022-12-24T04:46:13;7.03;;;2.67;;
57401;SDS011;43226;51.110;6.998;2022-12-24T04:48:44;11.30;;;2.60;;
57401;SDS011;43226;51.110;6.998;2022-12-24T04:51:10;10.60;;;2.80;;
57401;SDS011;43226;51.110;6.998;2022-12-24T04:53:36;12.47;;;2.20;;
57401;SDS011;43226;51.110;6.998;2022-12-24T04:56:01;9.50;;;2.00;;
57401;SDS011;43226;51.110;6.998;2022-12-24T04:58:27;11.00;;;2.27;;
57401;SDS011;43226;51.110;6.998;2022-12-24T05:00:52;8.97;;;2.67;;
57401;SDS011;43226;51.110;6.998;2022-12-24T05:03:17;12.33;;;2.50;;
57401;SDS011;43226;51.110;6.998;2022-12-24T05:05:43;16.83;;;2.33;;
57401;SDS011;43226;51.110;6.998;2022-12-24T05:08:08;12.00;;;3.10;;
57401;SDS011;43226;51.110;6.998;2022-12-24T05:10:33;12.03;;;2.50;;
57401;SDS011;43226;51.110;6.998;2022-12-24T05:12:58;16.53;;;3.13;;
57401;SDS011;43226;51.110;6.998;2022-12-24T05:15:24;13.83;;;2.77;;
57401;SDS011;43226;51.110;6.998;2022-12-24T05:17:49;21.37;;;3.10;;
57401;SDS011;43226;51.110;6.998;2022-12-24T05:20:14;10.37;;;2.60;;
57401;SDS011;43226;51.110;6.998;2022-12-24T05:22:40;14.50;;;3.00;;
57401;SDS011;43226;51.110;6.998;2022-12-24T05:25:24;14.50;;;3.77;;
57401;SDS011;43226;51.110;6.998;2022-12-24T05:28:18;17.17;;;3.10;;
57401;SDS011;43226;51.110;6.998;2022-12-24T05:30:44;8.90;;;3.27;;
57401;SDS011;43226;51.110;6.998;2022-12-24T05:33:09;12.90;;;2.53;;
57401;SDS011;43226;51.110;6.998;2022-12-24T05:35:34;10.07;;;3.17;;
57401;SDS011;43226;51.110;6.998;2022-12-24T05:37:59;19.13;;;3.20;;
57401;SDS011;43226;51.110;6.998;2022-12-24T05:40:24;18.47;;;5.60;;
57401;SDS011;43226;51.110;6.998;2022-12-24T05:42:50;12.53;;;3.07;;
57401;SDS011;43226;51.110;6.998;2022-12-24T05:45:15;15.80;;;3.27;;
57401;SDS011;43226;51.110;6.998;2022-12-24T05:47:40;12.50;;;3.77;;
57401;SDS011;43226;51.110;6.998;2022-12-24T05:50:06;11.57;;;3.40;;
57401;SDS011;43226;51.110;6.998;2022-12-24T05:52:31;17.00;;;3.37;;
57401;SDS011;43226;51.110;6.998;2022-12-24T05:54:56;11.00;;;3.30;;
57401;SDS011;43226;51.110;6.998;2022-12-24T05:57:21;13.27;;;2.73;;
57401;SDS011;43226;51.110;6.998;2022-12-24T05:59:46;9.40;;;3.07;;
57401;SDS011;43226;51.110;6.998;2022-12-24T06:02:13;13.13;;;2.97;;
57401;SDS011;43226;51.110;6.998;2022-12-24T06:04:38;11.20;;;3.97;;
57401;SDS011;43226;51.110;6.998;2022-12-24T06:07:03;14.87;;;2.43;;
57401;SDS011;43226;51.110;6.998;2022-12-24T06:09:28;13.43;;;3.37;;
57401;SDS011;43226;51.110;6.998;2022-12-24T06:11:54;7.90;;;2.83;;
57401;SDS011;43226;51.110;6.998;2022-12-24T06:14:19;15.73;;;3.40;;
57401;SDS011;43226;51.110;6.998;2022-12-24T06:16:44;14.90;;;2.20;;
57401;SDS011;43226;51.110;6.998;2022-12-24T06:19:09;19.97;;;2.93;;
57401;SDS011;43226;51.110;6.998;2022-12-24T06:21:34;19.80;;;2.73;;
57401;SDS011;43226;51.110;6.998;2022-12-24T06:24:00;20.90;;;2.90;;
57401;SDS011;43226;51.110;6.998;2022-12-24T06:26:25;22.27;;;3.53;;
57401;SDS011;43226;51.110;6.998;2022-12-24T06:28:50;13.00;;;3.47;;
57401;SDS011;43226;51.110;6.998;2022-12-24T06:31:17;14.60;;;3.23;;
57401;SDS011;43226;51.110;6.998;2022-12-24T06:33:43;16.30;;;3.67;;
57401;SDS011;43226;51.110;6.998;2022-12-24T06:36:09;13.53;;;4.33;;
57401;SDS011;43226;51.110;6.998;2022-12-24T06:38:37;12.00;;;3.87;;
57401;SDS011;43226;51.110;6.998;2022-12-24T06:41:05;12.87;;;3.60;;
57401;SDS011;43226;51.110;6.998;2022-12-24T06:43:31;15.20;;;3.90;;
57401;SDS011;43226;51.110;6.998;2022-12-24T06:45:58;14.00;;;3.47;;
57401;SDS011;43226;51.110;6.998;2022-12-24T06:48:24;21.80;;;3.73;;
57401;SDS011;43226;51.110;6.998;2022-12-24T06:50:49;15.53;;;3.50;;
57401;SDS011;43226;51.110;6.998;2022-12-24T06:53:14;21.77;;;4.27;;
57401;SDS011;43226;51.110;6.998;2022-12-24T06:55:39;18.60;;;3.50;;
57401;SDS011;43226;51.110;6.998;2022-12-24T06:58:04;15.77;;;3.33;;
57401;SDS011;43226;51.110;6.998;2022-12-24T07:00:30;18.50;;;3.80;;
57401;SDS011;43226;51.110;6.998;2022-12-24T07:02:55;19.53;;;3.30;;
57401;SDS011;43226;51.110;6.998;2022-12-24T07:05:20;30.03;;;4.80;;
57401;SDS011;43226;51.110;6.998;2022-12-24T07:07:45;21.90;;;4.43;;
57401;SDS011;43226;51.110;6.998;2022-12-24T07:10:12;19.23;;;3.90;;
57401;SDS011;43226;51.110;6.998;2022-12-24T07:12:37;15.70;;;4.27;;
57401;SDS011;43226;51.110;6.998;2022-12-24T07:15:02;12.93;;;4.20;;
57401;SDS011;43226;51.110;6.998;2022-12-24T07:17:27;14.90;;;3.70;;
57401;SDS011;43226;51.110;6.998;2022-12-24T07:19:53;16.30;;;4.50;;
57401;SDS011;43226;51.110;6.998;2022-12-24T07:22:18;20.43;;;4.00;;
57401;SDS011;43226;51.110;6.998;2022-12-24T07:24:43;13.00;;;3.93;;
57401;SDS011;43226;51.110;6.998;2022-12-24T07:27:09;20.97;;;4.43;;
57401;SDS011;43226;51.110;6.998;2022-12-24T07:29:35;15.13;;;3.57;;
57401;SDS011;43226;51.110;6.998;2022-12-24T07:32:00;28.60;;;4.90;;
57401;SDS011;43226;51.110;6.998;2022-12-24T07:34:25;22.90;;;4.10;;
57401;SDS011;43226;51.110;6.998;2022-12-24T07:36:50;17.60;;;4.23;;
57401;SDS011;43226;51.110;6.998;2022-12-24T07:39:15;20.87;;;4.03;;
57401;SDS011;43226;51.110;6.998;2022-12-24T07:41:41;11.00;;;3.13;;
57401;SDS011;43226;51.110;6.998;2022-12-24T07:44:07;27.90;;;4.87;;
57401;SDS011;43226;51.110;6.998;2022-12-24T07:46:35;24.87;;;4.10;;
57401;SDS011;43226;51.110;6.998;2022-12-24T07:49:00;17.07;;;4.40;;
57401;SDS011;43226;51.110;6.998;2022-12-24T07:51:25;21.87;;;3.50;;
57401;SDS011;43226;51.110;6.998;2022-12-24T07:53:50;21.83;;;4.30;;
57401;SDS011;43226;51.110;6.998;2022-12-24T07:56:15;27.40;;;4.00;;
57401;SDS011;43226;51.110;6.998;2022-12-24T07:58:41;22.83;;;3.80;;
57401;SDS011;43226;51.110;6.998;2022-12-24T08:01:06;29.27;;;4.30;;
57401;SDS011;43226;51.110;6.998;2022-12-24T08:03:31;18.93;;;3.30;;
57401;SDS011;43226;51.110;6.998;2022-12-24T08:05:56;9.97;;;3.40;;
57401;SDS011;43226;51.110;6.998;2022-12-24T08:08:22;19.93;;;3.47;;
57401;SDS011;43226;51.110;6.998;2022-12-24T08:10:47;15.30;;;3.80;;
57401;SDS011;43226;51.110;6.998;2022-12-24T08:13:13;21.40;;;4.00;;
57401;SDS011;43226;51.110;6.998;2022-12-24T08:15:38;19.53;;;4.40;;
57401;SDS011;43226;51.110;6.998;2022-12-24T08:18:03;36.30;;;4.37;;
57401;SDS011;43226;51.110;6.998;2022-12-24T08:20:28;29.93;;;4.67;;
57401;SDS011;43226;51.110;6.998;2022-12-24T08:22:54;12.00;;;3.50;;
57401;SDS011;43226;51.110;6.998;2022-12-24T08:25:19;15.53;;;3.40;;
57401;SDS011;43226;51.110;6.998;2022-12-24T08:27:44;28.90;;;4.50;;
57401;SDS011;43226;51.110;6.998;2022-12-24T08:30:10;16.33;;;3.40;;
57401;SDS011;43226;51.110;6.998;2022-12-24T08:32:35;20.07;;;4.10;;
57401;SDS011;43226;51.110;6.998;2022-12-24T08:35:00;22.97;;;4.50;;
57401;SDS011;43226;51.110;6.998;2022-12-24T08:37:26;19.50;;;3.03;;
57401;SDS011;43226;51.110;6.998;2022-12-24T08:39:51;21.17;;;4.87;;
57401;SDS011;43226;51.110;6.998;2022-12-24T08:42:16;28.33;;;3.97;;
57401;SDS011;43226;51.110;6.998;2022-12-24T08:44:41;23.17;;;3.93;;
57401;SDS011;43226;51.110;6.998;2022-12-24T08:47:06;38.17;;;3.97;;
57401;SDS011;43226;51.110;6.998;2022-12-24T08:49:32;19.17;;;4.37;;
57401;SDS011;43226;51.110;6.998;2022-12-24T08:51:57;23.50;;;3.83;;
57401;SDS011;43226;51.110;6.998;2022-12-24T08:54:22;18.73;;;3.43;;
57401;SDS011;43226;51.110;6.998;2022-12-24T08:56:47;17.30;;;3.70;;
57401;SDS011;43226;51.110;6.998;2022-12-24T08:59:13;19.27;;;3.90;;
57401;SDS011;43226;51.110;6.998;2022-12-24T09:01:38;20.87;;;3.77;;
57401;SDS011;43226;51.110;6.998;2022-12-24T09:04:03;15.27;;;4.30;;
57401;SDS011;43226;51.110;6.998;2022-12-24T09:06:30;21.40;;;4.13;;
57401;SDS011;43226;51.110;6.998;2022-12-24T09:08:55;20.87;;;4.17;;
57401;SDS011;43226;51.110;6.998;2022-12-24T09:11:21;16.07;;;3.80;;
57401;SDS011;43226;51.110;6.998;2022-12-24T09:13:46;23.13;;;3.90;;
57401;SDS011;43226;51.110;6.998;2022-12-24T09:16:11;19.30;;;3.87;;
57401;SDS011;43226;51.110;6.998;2022-12-24T09:18:37;16.47;;;3.77;;
57401;SDS011;43226;51.110;6.998;2022-12-24T09:21:03;20.73;;;3.73;;
57401;SDS011;43226;51.110;6.998;2022-12-24T09:23:29;20.03;;;4.40;;
57401;SDS011;43226;51.110;6.998;2022-12-24T09:25:55;22.23;;;4.23;;
57401;SDS011;43226;51.110;6.998;2022-12-24T09:28:20;26.80;;;4.97;;
57401;SDS011;43226;51.110;6.998;2022-12-24T09:30:53;18.73;;;4.33;;
57401;SDS011;43226;51.110;6.998;2022-12-24T09:33:19;25.00;;;3.50;;
57401;SDS011;43226;51.110;6.998;2022-12-24T09:35:44;20.37;;;4.10;;
57401;SDS011;43226;51.110;6.998;2022-12-24T09:38:09;26.27;;;4.63;;
57401;SDS011;43226;51.110;6.998;2022-12-24T09:40:36;25.33;;;4.50;;
57401;SDS011;43226;51.110;6.998;2022-12-24T09:43:03;21.20;;;4.00;;
57401;SDS011;43226;51.110;6.998;2022-12-24T09:45:30;22.63;;;4.40;;
57401;SDS011;43226;51.110;6.998;2022-12-24T09:47:58;10.03;;;3.63;;
57401;SDS011;43226;51.110;6.998;2022-12-24T09:52:49;43.93;;;13.07;;
57401;SDS011;43226;51.110;6.998;2022-12-24T09:55:30;24.10;;;6.03;;
57401;SDS011;43226;51.110;6.998;2022-12-24T09:57:56;24.80;;;4.40;;
57401;SDS011;43226;51.110;6.998;2022-12-24T10:00:26;31.10;;;5.20;;
57401;SDS011;43226;51.110;6.998;2022-12-24T10:02:51;27.97;;;5.93;;
57401;SDS011;43226;51.110;6.998;2022-12-24T10:05:17;18.93;;;6.07;;
57401;SDS011;43226;51.110;6.998;2022-12-24T10:07:46;25.60;;;4.50;;
57401;SDS011;43226;51.110;6.998;2022-12-24T10:10:57;25.67;;;5.00;;
57401;SDS011;43226;51.110;6.998;2022-12-24T10:15:29;16.30;;;4.97;;
57401;SDS011;43226;51.110;6.998;2022-12-24T10:28:12;30.47;;;4.87;;
57401;SDS011;43226;51.110;6.998;2022-12-24T10:30:38;22.03;;;4.80;;
57401;SDS011;43226;51.110;6.998;2022-12-24T10:33:06;22.23;;;4.33;;
57401;SDS011;43226;51.110;6.998;2022-12-24T10:35:35;17.57;;;4.60;;
57401;SDS011;43226;51.110;6.998;2022-12-24T10:38:03;30.40;;;5.00;;
57401;SDS011;43226;51.110;6.998;2022-12-24T10:40:37;18.87;;;3.70;;
57401;SDS011;43226;51.110;6.998;2022-12-24T10:45:43;23.00;;;6.70;;
57401;SDS011;43226;51.110;6.998;2022-12-24T10:48:10;18.33;;;4.17;;
57401;SDS011;43226;51.110;6.998;2022-12-24T10:50:40;20.80;;;4.53;;
57401;SDS011;43226;51.110;6.998;2022-12-24T10:56:05;28.63;;;5.57;;
57401;SDS011;43226;51.110;6.998;2022-12-24T10:58:31;17.00;;;4.10;;
57401;SDS011;43226;51.110;6.998;2022-12-24T11:00:57;23.17;;;5.30;;
57401;SDS011;43226;51.110;6.998;2022-12-24T11:03:23;25.70;;;5.10;;
57401;SDS011;43226;51.110;6.998;2022-12-24T11:05:59;25.20;;;4.40;;
57401;SDS011;43226;51.110;6.998;2022-12-24T11:08:24;34.83;;;5.33;;
57401;SDS011;43226;51.110;6.998;2022-12-24T11:10:54;21.23;;;5.10;;
57401;SDS011;43226;51.110;6.998;2022-12-24T11:15:58;39.77;;;5.20;;
57401;SDS011;43226;51.110;6.998;2022-12-24T11:18:24;22.07;;;4.53;;
57401;SDS011;43226;51.110;6.998;2022-12-24T11:20:49;27.40;;;5.47;;
57401;SDS011;43226;51.110;6.998;2022-12-24T11:23:16;25.50;;;4.50;;
57401;SDS011;43226;51.110;6.998;2022-12-24T11:25:41;19.90;;;4.73;;
57401;SDS011;43226;51.110;6.998;2022-12-24T11:28:20;20.87;;;3.63;;
57401;SDS011;43226;51.110;6.998;2022-12-24T11:33:23;19.97;;;4.10;;
57401;SDS011;43226;51.110;6.998;2022-12-24T11:35:50;22.73;;;4.27;;
57401;SDS011;43226;51.110;6.998;2022-12-24T11:38:20;29.73;;;4.50;;
57401;SDS011;43226;51.110;6.998;2022-12-24T11:40:47;18.00;;;4.10;;
57401;SDS011;43226;51.110;6.998;2022-12-24T11:43:17;27.53;;;4.27;;
57401;SDS011;43226;51.110;6.998;2022-12-24T11:45:50;24.77;;;4.53;;
57401;SDS011;43226;51.110;6.998;2022-12-24T11:48:26;13.80;;;3.80;;
57401;SDS011;43226;51.110;6.998;2022-12-24T11:50:55;20.93;;;5.50;;
57401;SDS011;43226;51.110;6.998;2022-12-24T11:53:22;20.93;;;4.40;;
57401;SDS011;43226;51.110;6.998;2022-12-24T11:55:51;19.13;;;4.93;;
57401;SDS011;43226;51.110;6.998;2022-12-24T11:58:39;23.23;;;4.30;;
57401;SDS011;43226;51.110;6.998;2022-12-24T12:01:21;18.70;;;3.73;;
57401;SDS011;43226;51.110;6.998;2022-12-24T12:03:49;30.53;;;4.63;;
57401;SDS011;43226;51.110;6.998;2022-12-24T12:08:49;22.07;;;4.83;;
57401;SDS011;43226;51.110;6.998;2022-12-24T12:11:15;24.60;;;4.60;;
57401;SDS011;43226;51.110;6.998;2022-12-24T12:13:41;24.30;;;4.60;;
57401;SDS011;43226;51.110;6.998;2022-12-24T12:18:53;20.37;;;4.47;;
57401;SDS011;43226;51.110;6.998;2022-12-24T12:21:20;20.63;;;3.97;;
57401;SDS011;43226;51.110;6.998;2022-12-24T12:23:54;20.60;;;3.90;;
57401;SDS011;43226;51.110;6.998;2022-12-24T12:29:12;22.30;;;5.17;;
57401;SDS011;43226;51.110;6.998;2022-12-24T12:31:41;25.47;;;5.90;;
57401;SDS011;43226;51.110;6.998;2022-12-24T12:36:35;50.20;;;14.57;;
57401;SDS011;43226;51.110;6.998;2022-12-24T12:39:02;20.77;;;6.83;;
57401;SDS011;43226;51.110;6.998;2022-12-24T12:44:25;35.97;;;8.67;;
57401;SDS011;43226;51.110;6.998;2022-12-24T12:47:02;28.13;;;9.70;;
57401;SDS011;43226;51.110;6.998;2022-12-24T12:52:40;28.57;;;7.80;;
57401;SDS011;43226;51.110;6.998;2022-12-24T12:55:03;34.20;;;11.87;;
57401;SDS011;43226;51.110;6.998;2022-12-24T12:57:32;42.07;;;14.33;;
57401;SDS011;43226;51.110;6.998;2022-12-24T13:00:04;40.67;;;11.30;;
57401;SDS011;43226;51.110;6.998;2022-12-24T13:13:28;25.17;;;7.80;;
57401;SDS011;43226;51.110;6.998;2022-12-24T13:16:01;42.60;;;16.20;;
57401;SDS011;43226;51.110;6.998;2022-12-24T13:18:47;27.57;;;7.10;;
57401;SDS011;43226;51.110;6.998;2022-12-24T13:21:19;24.00;;;5.80;;
57401;SDS011;43226;51.110;6.998;2022-12-24T13:23:44;16.67;;;4.37;;
57401;SDS011;43226;51.110;6.998;2022-12-24T13:26:11;19.03;;;3.63;;
57401;SDS011;43226;51.110;6.998;2022-12-24T13:28:36;19.43;;;4.20;;
57401;SDS011;43226;51.110;6.998;2022-12-24T13:36:08;15.48;;;3.47;;
57401;SDS011;43226;51.110;6.998;2022-12-24T13:44:03;22.37;;;4.53;;
57401;SDS011;43226;51.110;6.998;2022-12-24T13:49:20;24.33;;;4.50;;
57401;SDS011;43226;51.110;6.998;2022-12-24T13:51:46;15.77;;;3.67;;
57401;SDS011;43226;51.110;6.998;2022-12-24T13:54:12;25.90;;;5.90;;
57401;SDS011;43226;51.110;6.998;2022-12-24T13:56:37;13.47;;;3.40;;
57401;SDS011;43226;51.110;6.998;2022-12-24T13:59:36;20.33;;;4.50;;
57401;SDS011;43226;51.110;6.998;2022-12-24T14:01:54;14.50;;;5.20;;
57401;SDS011;43226;51.110;6.998;2022-12-24T14:04:21;26.23;;;4.40;;
57401;SDS011;43226;51.110;6.998;2022-12-24T14:06:48;24.73;;;6.50;;
57401;SDS011;43226;51.110;6.998;2022-12-24T14:09:18;20.13;;;4.40;;
57401;SDS011;43226;51.110;6.998;2022-12-24T14:16:53;21.33;;;4.87;;
57401;SDS011;43226;51.110;6.998;2022-12-24T14:19:22;20.60;;;4.77;;
57401;SDS011;43226;51.110;6.998;2022-12-24T14:24:27;11.20;;;3.30;;
57401;SDS011;43226;51.110;6.998;2022-12-24T14:26:56;15.43;;;4.73;;
57401;SDS011;43226;51.110;6.998;2022-12-24T14:31:51;15.93;;;4.37;;
57401;SDS011;43226;51.110;6.998;2022-12-24T14:34:16;13.37;;;3.93;;
57401;SDS011;43226;51.110;6.998;2022-12-24T14:36:42;30.27;;;4.37;;
57401;SDS011;43226;51.110;6.998;2022-12-24T14:39:08;16.37;;;4.07;;
57401;SDS011;43226;51.110;6.998;2022-12-24T14:42:20;25.23;;;4.20;;
57401;SDS011;43226;51.110;6.998;2022-12-24T14:44:26;13.37;;;3.70;;
57401;SDS011;43226;51.110;6.998;2022-12-24T14:52:17;18.53;;;6.20;;
57401;SDS011;43226;51.110;6.998;2022-12-24T14:54:46;25.03;;;5.33;;
57401;SDS011;43226;51.110;6.998;2022-12-24T14:57:13;20.37;;;4.13;;
57401;SDS011;43226;51.110;6.998;2022-12-24T14:59:48;22.43;;;3.97;;
57401;SDS011;43226;51.110;6.998;2022-12-24T15:07:31;13.40;;;3.10;;
57401;SDS011;43226;51.110;6.998;2022-12-24T15:09:58;27.20;;;4.57;;
57401;SDS011;43226;51.110;6.998;2022-12-24T15:12:23;15.40;;;3.43;;
57401;SDS011;43226;51.110;6.998;2022-12-24T15:14:49;30.50;;;4.37;;
57401;SDS011;43226;51.110;6.998;2022-12-24T15:17:14;18.20;;;3.70;;
57401;SDS011;43226;51.110;6.998;2022-12-24T15:19:40;19.33;;;4.30;;
57401;SDS011;43226;51.110;6.998;2022-12-24T15:22:08;23.80;;;6.27;;
57401;SDS011;43226;51.110;6.998;2022-12-24T15:24:34;35.13;;;9.80;;
57401;SDS011;43226;51.110;6.998;2022-12-24T15:27:01;29.00;;;7.10;;
57401;SDS011;43226;51.110;6.998;2022-12-24T15:29:28;21.00;;;5.30;;
57401;SDS011;43226;51.110;6.998;2022-12-24T15:32:00;24.40;;;6.80;;
57401;SDS011;43226;51.110;6.998;2022-12-24T15:37:01;20.50;;;5.73;;
57401;SDS011;43226;51.110;6.998;2022-12-24T15:39:30;14.53;;;5.73;;
57401;SDS011;43226;51.110;6.998;2022-12-24T15:41:55;23.87;;;6.37;;
57401;SDS011;43226;51.110;6.998;2022-12-24T15:48:26;37.23;;;7.70;;
57401;SDS011;43226;51.110;6.998;2022-12-24T15:50:32;36.27;;;9.87;;
57401;SDS011;43226;51.110;6.998;2022-12-24T15:53:02;27.13;;;9.00;;
57401;SDS011;43226;51.110;6.998;2022-12-24T15:55:37;34.70;;;8.73;;
57401;SDS011;43226;51.110;6.998;2022-12-24T16:03:39;35.63;;;11.50;;
57401;SDS011;43226;51.110;6.998;2022-12-24T16:06:05;27.30;;;10.43;;
57401;SDS011;43226;51.110;6.998;2022-12-24T16:08:34;28.77;;;10.80;;
57401;SDS011;43226;51.110;6.998;2022-12-24T16:11:16;41.30;;;12.83;;
57401;SDS011;43226;51.110;6.998;2022-12-24T16:13:53;39.90;;;12.43;;
57401;SDS011;43226;51.110;6.998;2022-12-24T16:16:29;34.40;;;14.13;;
57401;SDS011;43226;51.110;6.998;2022-12-24T16:18:58;29.00;;;11.73;;
57401;SDS011;43226;51.110;6.998;2022-12-24T16:21:31;24.10;;;10.73;;
57401;SDS011;43226;51.110;6.998;2022-12-24T16:24:02;25.07;;;10.77;;
57401;SDS011;43226;51.110;6.998;2022-12-24T16:26:31;26.50;;;10.77;;
57401;SDS011;43226;51.110;6.998;2022-12-24T16:28:56;34.33;;;9.83;;
57401;SDS011;43226;51.110;6.998;2022-12-24T16:31:32;28.57;;;8.50;;
57401;SDS011;43226;51.110;6.998;2022-12-24T16:33:58;44.37;;;10.23;;
57401;SDS011;43226;51.110;6.998;2022-12-24T16:36:23;24.27;;;9.40;;